Time;durP1;ratioP1;P1;durP2;ratioP2;P2;SDS_P1;SDS_P2;PMS_P1;PMS_P2;Temp;Humidity;BMP_temperature;BMP_pressure;BME280_temperature;BME280_humidity;BME280_pressure;Samples;Min_cycle;Max_cycle;Signal;HPM_P1;HPM_P2
2022/04/07 00:00:50;;;;;;;16.98;3.40;;;10.80;81.50;;;;;;5019135;28;20441;-76
2022/04/07 00:03:16;;;;;;;15.50;3.75;;;10.90;81.50;;;;;;5017983;28;20049;-76
2022/04/07 00:05:41;;;;;;;13.65;3.13;;;10.90;81.30;;;;;;5018600;28;20045;-75
2022/04/07 00:08:07;;;;;;;18.30;3.30;;;10.90;81.20;;;;;;5013770;28;20069;-75
2022/04/07 00:10:34;;;;;;;15.93;2.90;;;10.90;81.10;;;;;;5018460;28;20052;-76
2022/04/07 00:13:00;;;;;;;14.07;3.03;;;10.80;81.50;;;;;;5018316;28;20042;-76
2022/04/07 00:15:26;;;;;;;12.98;3.00;;;10.80;81.60;;;;;;5015163;28;20026;-78
2022/04/07 00:17:52;;;;;;;15.25;3.30;;;10.80;81.60;;;;;;5019438;28;20044;-74
2022/04/07 00:20:18;;;;;;;18.55;3.20;;;10.80;81.80;;;;;;5017107;28;20424;-74
2022/04/07 00:22:44;;;;;;;15.93;3.13;;;10.80;82.20;;;;;;5017715;28;20266;-74
2022/04/07 00:25:10;;;;;;;14.95;3.28;;;10.80;82.20;;;;;;5015692;28;20389;-75
2022/04/07 00:27:37;;;;;;;17.05;3.63;;;10.80;82.40;;;;;;5018979;28;20506;-76
2022/04/07 00:30:04;;;;;;;17.75;4.15;;;10.80;82.30;;;;;;5018677;28;20048;-78
2022/04/07 00:32:30;;;;;;;20.80;3.50;;;10.80;82.30;;;;;;5018558;28;20037;-77
2022/04/07 00:34:56;;;;;;;22.02;3.90;;;10.80;82.40;;;;;;5019803;28;20037;-77
2022/04/07 00:37:25;;;;;;;16.88;3.58;;;10.80;82.20;;;;;;5018193;28;20034;-76
2022/04/07 00:39:53;;;;;;;12.95;2.55;;;10.80;81.80;;;;;;5019729;28;20048;-76
2022/04/07 00:42:19;;;;;;;18.20;3.40;;;10.80;81.90;;;;;;5017986;28;20497;-76
2022/04/07 00:44:45;;;;;;;15.45;3.00;;;10.90;81.50;;;;;;5010993;28;20355;-76
2022/04/07 00:47:11;;;;;;;17.38;4.30;;;10.90;81.50;;;;;;5018366;28;20065;-75
2022/04/07 00:49:36;;;;;;;18.88;3.13;;;10.90;81.30;;;;;;5018842;28;20547;-75
2022/04/07 00:52:03;;;;;;;14.70;3.42;;;10.90;81.20;;;;;;5011994;28;20045;-75
2022/04/07 00:54:30;;;;;;;17.25;3.80;;;10.90;81.10;;;;;;5014602;28;20591;-76
2022/04/07 00:56:56;;;;;;;15.05;4.22;;;10.90;81.10;;;;;;5018161;28;20623;-74
2022/04/07 00:59:22;;;;;;;17.77;3.90;;;10.90;81.30;;;;;;5001149;28;20132;-74
2022/04/07 01:01:48;;;;;;;15.85;3.25;;;10.90;81.20;;;;;;5001025;28;20049;-76
2022/04/07 01:04:15;;;;;;;16.63;3.78;;;10.90;81.20;;;;;;5015895;28;20217;-75
2022/04/07 01:06:44;;;;;;;16.13;3.30;;;10.90;81.10;;;;;;4999812;28;20485;-77
2022/04/07 01:09:10;;;;;;;18.85;4.07;;;10.90;81.20;;;;;;5017841;28;20123;-77
2022/04/07 01:11:40;;;;;;;18.10;3.60;;;10.90;81.40;;;;;;5013865;28;20037;-75
2022/04/07 01:14:06;;;;;;;13.82;3.40;;;10.80;81.40;;;;;;5012692;28;20038;-75
2022/04/07 01:16:32;;;;;;;16.48;4.28;;;10.80;81.40;;;;;;5017098;28;20048;-75
2022/04/07 01:18:59;;;;;;;14.77;3.30;;;10.80;81.30;;;;;;5017202;28;20041;-77
2022/04/07 01:21:27;;;;;;;15.90;3.75;;;10.80;81.20;;;;;;5016974;28;20041;-77
2022/04/07 01:24:13;;;;;;;18.75;3.03;;;10.90;81.10;;;;;;5013626;28;20037;-75
2022/04/07 01:26:46;;;;;;;17.00;4.40;;;10.90;80.90;;;;;;5015935;28;20041;-76
2022/04/07 01:29:16;;;;;;;16.65;3.88;;;10.90;80.80;;;;;;5013350;28;20045;-75
2022/04/07 01:31:42;;;;;;;19.50;3.50;;;10.90;80.70;;;;;;5017475;28;20071;-74
2022/04/07 01:34:13;;;;;;;16.67;3.30;;;10.90;80.60;;;;;;5014349;28;20026;-78
2022/04/07 01:36:41;;;;;;;15.93;3.63;;;10.90;80.40;;;;;;5017927;28;20042;-77
2022/04/07 01:39:08;;;;;;;16.27;3.55;;;11.00;80.00;;;;;;5016160;28;20140;-76
2022/04/07 01:41:35;;;;;;;15.55;3.58;;;10.90;80.00;;;;;;5016913;28;20140;-75
2022/04/07 01:44:03;;;;;;;16.15;4.25;;;11.00;79.70;;;;;;5017527;28;20481;-77
2022/04/07 01:46:31;;;;;;;16.77;3.53;;;11.00;79.50;;;;;;5017314;28;20041;-76
2022/04/07 01:48:59;;;;;;;17.05;4.13;;;11.00;79.50;;;;;;5016950;28;20034;-76
2022/04/07 01:51:26;;;;;;;14.15;4.18;;;11.00;79.30;;;;;;5012921;28;20065;-75
2022/04/07 01:53:51;;;;;;;16.85;4.03;;;11.00;79.40;;;;;;4990824;28;20444;-76
2022/04/07 01:56:19;;;;;;;16.42;3.20;;;11.10;79.00;;;;;;5016686;28;20029;-75
2022/04/07 01:58:45;;;;;;;15.02;3.38;;;11.00;78.90;;;;;;5015300;28;20374;-76
2022/04/07 02:01:11;;;;;;;15.38;2.90;;;11.10;78.70;;;;;;5015087;28;20434;-75
2022/04/07 02:03:38;;;;;;;15.02;3.35;;;11.10;78.30;;;;;;4999494;28;20086;-75
2022/04/07 02:06:30;;;;;;;19.48;3.38;;;11.10;78.00;;;;;;5015213;28;20042;-73
2022/04/07 02:08:56;;;;;;;13.30;2.67;;;11.10;78.00;;;;;;5013601;28;20036;-75
2022/04/07 02:11:22;;;;;;;13.43;3.40;;;11.10;78.20;;;;;;5016092;28;20429;-75
2022/04/07 02:13:49;;;;;;;14.38;3.40;;;11.10;78.40;;;;;;5013360;28;20105;-78
2022/04/07 02:16:15;;;;;;;11.75;2.88;;;11.10;78.00;;;;;;5013529;28;20025;-76
2022/04/07 02:18:41;;;;;;;15.95;3.47;;;11.10;78.10;;;;;;4999312;28;20160;-75
2022/04/07 02:21:07;;;;;;;14.30;3.20;;;11.10;78.00;;;;;;5013908;28;20177;-75
2022/04/07 02:23:41;;;;;;;12.07;2.88;;;11.10;78.00;;;;;;5015246;28;20631;-77
2022/04/07 02:26:16;;;;;;;11.38;2.75;;;11.10;78.10;;;;;;5016293;28;20526;-75
2022/04/07 02:28:41;;;;;;;11.68;2.95;;;11.10;78.20;;;;;;5015277;28;20042;-75
2022/04/07 02:31:08;;;;;;;14.25;3.63;;;11.10;78.10;;;;;;5015660;28;20053;-75
2022/04/07 02:33:34;;;;;;;9.60;2.78;;;11.10;77.90;;;;;;4998318;28;20046;-78
2022/04/07 02:36:01;;;;;;;12.05;2.50;;;11.10;77.90;;;;;;5011046;28;20049;-76
2022/04/07 02:38:27;;;;;;;12.40;2.72;;;11.10;77.80;;;;;;5015122;28;20193;-77
2022/04/07 02:40:52;;;;;;;17.90;3.50;;;11.10;77.90;;;;;;5017713;28;20045;-75
2022/04/07 02:43:19;;;;;;;11.63;2.70;;;11.10;78.00;;;;;;5014844;28;20041;-76
2022/04/07 02:45:44;;;;;;;10.40;2.42;;;11.10;78.20;;;;;;5003771;28;20038;-75
2022/04/07 02:48:10;;;;;;;10.88;2.47;;;11.10;78.00;;;;;;5014688;28;20045;-75
2022/04/07 02:50:35;;;;;;;14.80;2.95;;;11.00;78.30;;;;;;4997805;28;20029;-75
2022/04/07 02:53:01;;;;;;;12.00;2.65;;;11.00;78.50;;;;;;5015368;28;20120;-75
2022/04/07 02:55:27;;;;;;;14.13;2.88;;;11.00;78.60;;;;;;5016740;28;20043;-76
2022/04/07 02:57:53;;;;;;;14.98;3.35;;;11.00;78.80;;;;;;5012448;28;20059;-75
2022/04/07 03:00:19;;;;;;;10.02;2.92;;;11.10;78.50;;;;;;5016751;28;20365;-74
2022/04/07 03:02:44;;;;;;;10.15;2.60;;;11.10;78.30;;;;;;5014912;28;20044;-74
2022/04/07 03:05:11;;;;;;;8.70;2.75;;;11.10;78.30;;;;;;5015901;28;20067;-76
2022/04/07 03:07:36;;;;;;;11.07;2.60;;;11.10;78.40;;;;;;5015643;28;20131;-77
2022/04/07 03:10:02;;;;;;;16.40;2.75;;;11.10;78.30;;;;;;5016609;28;20626;-75
2022/04/07 03:12:28;;;;;;;11.52;3.05;;;11.10;78.00;;;;;;5015223;28;20037;-75
2022/04/07 03:14:53;;;;;;;10.88;2.75;;;11.10;77.80;;;;;;5012307;28;20144;-76
2022/04/07 03:17:19;;;;;;;11.82;2.88;;;11.10;78.30;;;;;;5015264;28;20452;-73
2022/04/07 03:19:45;;;;;;;8.77;2.10;;;11.10;78.50;;;;;;5015969;28;20038;-75
2022/04/07 03:22:12;;;;;;;8.45;2.58;;;11.00;78.70;;;;;;5015554;28;20056;-75
2022/04/07 03:24:38;;;;;;;10.35;2.53;;;11.00;78.80;;;;;;5010110;28;20145;-75
2022/04/07 03:27:07;;;;;;;12.73;2.30;;;11.00;78.90;;;;;;5016001;28;20053;-76
2022/04/07 03:29:34;;;;;;;9.40;2.25;;;11.10;78.90;;;;;;5015704;28;20489;-76
2022/04/07 03:31:59;;;;;;;8.38;2.53;;;11.00;78.90;;;;;;5021875;28;20037;-75
2022/04/07 03:34:25;;;;;;;11.98;3.00;;;11.10;78.90;;;;;;5003279;28;20045;-75
2022/04/07 03:36:51;;;;;;;10.85;3.10;;;11.00;78.90;;;;;;5021302;28;20100;-75
2022/04/07 03:39:16;;;;;;;10.38;2.70;;;11.10;79.20;;;;;;5019368;28;20193;-75
2022/04/07 03:41:42;;;;;;;10.63;2.33;;;11.00;79.90;;;;;;5016447;28;20054;-75
2022/04/07 03:44:09;;;;;;;7.93;2.80;;;11.00;80.30;;;;;;5016444;28;20033;-75
2022/04/07 03:46:36;;;;;;;7.50;2.45;;;10.90;80.70;;;;;;5018667;28;20030;-75
2022/04/07 03:49:02;;;;;;;8.48;3.17;;;10.90;81.20;;;;;;5016508;28;20448;-75
2022/04/07 03:51:28;;;;;;;9.00;2.70;;;10.80;82.00;;;;;;5021046;28;20049;-75
2022/04/07 03:53:54;;;;;;;8.45;2.60;;;10.80;82.50;;;;;;4996270;28;20057;-77
2022/04/07 03:56:19;;;;;;;8.48;3.10;;;10.80;83.20;;;;;;5019408;28;20056;-75
2022/04/07 03:58:45;;;;;;;7.13;3.05;;;10.60;83.80;;;;;;5018133;28;20103;-76
2022/04/07 04:01:10;;;;;;;8.85;2.65;;;10.60;84.00;;;;;;5018316;28;20096;-74
2022/04/07 04:03:36;;;;;;;9.63;3.08;;;10.60;84.20;;;;;;5017928;28;20120;-75
2022/04/07 04:06:02;;;;;;;6.78;2.28;;;10.50;84.30;;;;;;5001582;28;20046;-74
2022/04/07 04:08:28;;;;;;;6.72;2.63;;;10.50;84.50;;;;;;5001852;28;20049;-75
2022/04/07 04:10:54;;;;;;;9.52;2.95;;;10.50;84.40;;;;;;5019652;28;20049;-76
2022/04/07 04:13:19;;;;;;;6.93;2.53;;;10.50;84.80;;;;;;5017800;28;20459;-77
2022/04/07 04:15:45;;;;;;;8.55;2.53;;;10.40;84.90;;;;;;5014169;28;20057;-75
2022/04/07 04:18:11;;;;;;;8.30;2.38;;;10.50;84.90;;;;;;5019388;28;20030;-75
2022/04/07 04:20:38;;;;;;;7.53;2.75;;;10.50;84.70;;;;;;5017271;28;20442;-76
2022/04/07 04:23:04;;;;;;;7.38;2.70;;;10.50;84.80;;;;;;5019502;28;20038;-75
2022/04/07 04:25:30;;;;;;;7.13;2.97;;;10.40;84.40;;;;;;5017060;28;20033;-77
2022/04/07 04:27:55;;;;;;;6.75;2.65;;;10.40;84.30;;;;;;5018809;28;20072;-75
2022/04/07 04:30:21;;;;;;;6.85;3.05;;;10.40;84.10;;;;;;5015602;28;20053;-76
2022/04/07 04:32:47;;;;;;;7.93;2.72;;;10.50;84.10;;;;;;5020059;28;20089;-75
2022/04/07 04:35:12;;;;;;;9.40;2.95;;;10.40;83.90;;;;;;5015697;28;20495;-77
2022/04/07 04:37:39;;;;;;;7.28;2.60;;;10.40;84.00;;;;;;5020390;28;20481;-74
2022/04/07 04:40:05;;;;;;;8.95;2.70;;;10.50;83.90;;;;;;5016058;28;20037;-75
2022/04/07 04:42:31;;;;;;;9.55;3.30;;;10.50;84.00;;;;;;5019812;28;20041;-75
2022/04/07 04:44:56;;;;;;;9.38;3.17;;;10.50;83.90;;;;;;5014920;28;20575;-75
2022/04/07 04:47:22;;;;;;;7.50;2.65;;;10.40;84.10;;;;;;5016832;28;20895;-74
2022/04/07 04:49:48;;;;;;;11.80;3.55;;;10.50;84.00;;;;;;5017943;28;20240;-74
2022/04/07 04:52:14;;;;;;;8.20;3.00;;;10.50;84.10;;;;;;5019247;28;20041;-76
2022/04/07 04:54:39;;;;;;;9.13;2.97;;;10.50;84.20;;;;;;5015264;28;20468;-75
2022/04/07 04:57:06;;;;;;;9.50;3.55;;;10.50;84.20;;;;;;5017733;28;20381;-75
2022/04/07 04:59:32;;;;;;;11.73;3.40;;;10.50;84.30;;;;;;5016269;28;20037;-75
2022/04/07 05:01:57;;;;;;;13.90;3.20;;;10.40;84.20;;;;;;5018243;28;20049;-75
2022/04/07 05:04:23;;;;;;;10.20;3.65;;;10.50;84.30;;;;;;5015799;28;20429;-75
2022/04/07 05:06:49;;;;;;;12.93;3.38;;;10.50;84.40;;;;;;5017638;28;20045;-75
2022/04/07 05:09:14;;;;;;;10.70;4.03;;;10.50;84.50;;;;;;5017933;28;20041;-76
2022/04/07 05:11:40;;;;;;;9.57;3.50;;;10.50;84.50;;;;;;5017432;28;20087;-74
2022/04/07 05:14:06;;;;;;;14.93;3.75;;;10.50;84.70;;;;;;4995820;28;20041;-75
2022/04/07 05:16:31;;;;;;;10.45;3.67;;;10.40;84.90;;;;;;4999967;28;20034;-74
2022/04/07 05:18:57;;;;;;;15.05;3.85;;;10.40;85.20;;;;;;5017031;28;20559;-74
2022/04/07 05:21:23;;;;;;;9.20;3.50;;;10.50;85.20;;;;;;5015367;28;20480;-76
2022/04/07 05:23:48;;;;;;;10.65;3.47;;;10.40;85.80;;;;;;5013306;28;20133;-74
2022/04/07 05:26:14;;;;;;;12.52;3.80;;;10.30;86.20;;;;;;5017725;28;20029;-76
2022/04/07 05:28:41;;;;;;;15.75;4.03;;;10.30;86.60;;;;;;5016570;28;20400;-75
2022/04/07 05:31:06;;;;;;;12.23;4.13;;;10.20;87.00;;;;;;5015879;28;20084;-75
2022/04/07 05:33:32;;;;;;;13.02;3.50;;;10.20;87.40;;;;;;5016233;28;20140;-75
2022/04/07 05:35:59;;;;;;;12.70;4.50;;;10.20;87.60;;;;;;5011418;28;20081;-75
2022/04/07 05:38:24;;;;;;;9.13;3.42;;;10.20;88.00;;;;;;5014787;28;20042;-76
2022/04/07 05:40:50;;;;;;;11.55;3.28;;;10.10;88.30;;;;;;5018512;28;20912;-75
2022/04/07 05:43:16;;;;;;;12.05;3.88;;;10.20;88.40;;;;;;5013778;28;20069;-76
2022/04/07 05:45:49;;;;;;;13.02;3.65;;;10.10;88.70;;;;;;4997417;28;20862;-77
2022/04/07 05:48:14;;;;;;;13.13;4.28;;;10.10;88.90;;;;;;5016241;28;20516;-76
2022/04/07 05:50:40;;;;;;;8.63;3.22;;;10.10;89.10;;;;;;5018800;28;20534;-75
2022/04/07 05:53:07;;;;;;;11.95;4.47;;;10.10;89.20;;;;;;5015576;28;20565;-76
2022/04/07 05:55:33;;;;;;;12.65;3.97;;;10.10;89.20;;;;;;5015099;28;20652;-75
2022/04/07 05:58:04;;;;;;;11.77;3.95;;;10.10;89.30;;;;;;5016211;28;20038;-76
2022/04/07 06:00:29;;;;;;;10.25;3.75;;;10.10;89.30;;;;;;5015014;28;20040;-76
2022/04/07 06:02:55;;;;;;;11.55;3.35;;;10.20;89.40;;;;;;5014974;28;20408;-76
2022/04/07 06:05:21;;;;;;;14.65;3.50;;;10.20;89.30;;;;;;5012366;28;20048;-77
2022/04/07 06:07:46;;;;;;;10.00;3.47;;;10.20;89.40;;;;;;5017800;28;20065;-75
2022/04/07 06:10:13;;;;;;;10.13;3.15;;;10.20;89.40;;;;;;5015575;28;20033;-76
2022/04/07 06:12:42;;;;;;;12.80;3.88;;;10.30;89.40;;;;;;5001562;28;20041;-76
2022/04/07 06:15:08;;;;;;;9.55;3.35;;;10.30;89.40;;;;;;5013663;28;20111;-76
2022/04/07 06:17:35;;;;;;;9.43;3.70;;;10.30;89.70;;;;;;5015380;28;20030;-75
2022/04/07 06:20:01;;;;;;;7.80;3.03;;;10.30;89.70;;;;;;5017316;28;20035;-75
2022/04/07 06:22:27;;;;;;;13.38;4.00;;;10.30;89.80;;;;;;4997775;28;20037;-76
2022/04/07 06:24:52;;;;;;;10.43;3.67;;;10.30;89.90;;;;;;5014390;28;20041;-76
2022/04/07 06:27:18;;;;;;;9.07;3.80;;;10.40;89.90;;;;;;5008788;28;20057;-76
2022/04/07 06:29:44;;;;;;;9.93;3.80;;;10.40;90.00;;;;;;5006776;28;20045;-74
2022/04/07 06:32:09;;;;;;;11.32;3.40;;;10.40;90.20;;;;;;5008686;28;20128;-72
2022/04/07 06:34:35;;;;;;;9.85;3.83;;;10.50;90.20;;;;;;4993978;28;20259;-72
2022/04/07 06:37:01;;;;;;;8.93;3.95;;;10.50;90.20;;;;;;4997783;28;20421;-73
2022/04/07 06:39:26;;;;;;;9.70;3.42;;;10.50;90.30;;;;;;5006884;28;20485;-73
2022/04/07 06:41:52;;;;;;;7.43;3.60;;;10.60;90.40;;;;;;5007153;28;20053;-73
2022/04/07 06:44:19;;;;;;;7.93;3.78;;;10.60;90.40;;;;;;5009462;28;20052;-73
2022/04/07 06:46:45;;;;;;;7.95;3.55;;;10.60;90.40;;;;;;5002519;28;20545;-73
2022/04/07 06:49:11;;;;;;;9.85;3.80;;;10.60;90.40;;;;;;5006422;28;20461;-73
2022/04/07 06:51:37;;;;;;;9.32;4.00;;;10.60;90.70;;;;;;5010438;28;20037;-73
2022/04/07 06:54:02;;;;;;;10.07;3.72;;;10.60;90.80;;;;;;5007913;28;20087;-73
2022/04/07 06:56:28;;;;;;;6.70;3.55;;;10.60;90.80;;;;;;5010142;28;20095;-73
2022/04/07 06:58:54;;;;;;;9.95;3.92;;;10.60;90.90;;;;;;5008002;28;20060;-74
2022/04/07 07:01:20;;;;;;;9.55;3.67;;;10.60;91.00;;;;;;5010573;28;20066;-74
2022/04/07 07:03:46;;;;;;;8.02;4.30;;;10.60;91.00;;;;;;5013131;28;20133;-77
2022/04/07 07:06:12;;;;;;;12.90;3.90;;;10.60;91.00;;;;;;5016557;28;20052;-75
2022/04/07 07:08:38;;;;;;;10.00;4.13;;;10.60;91.50;;;;;;5020652;28;20037;-75
2022/04/07 07:11:03;;;;;;;9.32;4.03;;;10.50;92.40;;;;;;4999527;28;20042;-73
2022/04/07 07:13:29;;;;;;;6.95;3.13;;;10.50;92.30;;;;;;5021068;28;20512;-75
2022/04/07 07:15:55;;;;;;;7.05;2.70;;;10.40;92.00;;;;;;5015674;28;20165;-76
2022/04/07 07:18:21;;;;;;;9.07;2.95;;;10.40;91.60;;;;;;5016305;28;20049;-76
2022/04/07 07:20:47;;;;;;;5.55;3.15;;;10.30;91.20;;;;;;5008627;28;20614;-75
2022/04/07 07:23:13;;;;;;;3.75;1.90;;;10.30;90.60;;;;;;5019040;28;21240;-75
2022/04/07 07:25:38;;;;;;;4.47;1.70;;;10.40;90.10;;;;;;5011536;28;20069;-76
2022/04/07 07:28:05;;;;;;;4.28;1.83;;;10.40;89.60;;;;;;5011382;28;20111;-76
2022/04/07 07:30:31;;;;;;;3.45;1.77;;;10.40;89.50;;;;;;5010727;28;20049;-76
2022/04/07 07:32:58;;;;;;;2.65;1.50;;;10.60;89.40;;;;;;5008208;28;20033;-76
2022/04/07 07:35:25;;;;;;;4.38;2.05;;;10.60;89.40;;;;;;5011000;28;20034;-76
2022/04/07 07:38:01;;;;;;;4.82;2.08;;;10.60;89.40;;;;;;4999369;28;20036;-75
2022/04/07 07:40:31;;;;;;;3.55;1.75;;;10.70;89.40;;;;;;5013961;28;20034;-76
2022/04/07 07:43:00;;;;;;;6.30;1.80;;;10.70;89.30;;;;;;5010439;28;20472;-75
2022/04/07 07:45:27;;;;;;;3.97;1.48;;;10.60;89.40;;;;;;5012545;28;20193;-75
2022/04/07 07:47:53;;;;;;;3.33;1.70;;;10.60;89.70;;;;;;5013408;28;20538;-75
2022/04/07 07:50:20;;;;;;;5.15;1.45;;;10.50;89.70;;;;;;5010029;28;20033;-75
2022/04/07 07:52:46;;;;;;;6.47;2.13;;;10.40;88.50;;;;;;5010014;28;20053;-72
2022/04/07 07:55:11;;;;;;;3.15;1.30;;;10.60;88.30;;;;;;5010943;28;20033;-72
2022/04/07 07:57:37;;;;;;;4.32;1.60;;;10.60;87.80;;;;;;5020215;28;20033;-75
2022/04/07 08:00:07;;;;;;;4.93;1.73;;;10.60;87.70;;;;;;5019386;28;20045;-75
2022/04/07 08:02:34;;;;;;;6.10;1.77;;;10.70;87.70;;;;;;5012819;28;20037;-75
2022/04/07 08:05:00;;;;;;;3.15;1.42;;;10.80;87.30;;;;;;5018954;28;20850;-75
2022/04/07 08:07:27;;;;;;;5.65;1.80;;;11.00;86.70;;;;;;4988190;28;20472;-74
2022/04/07 08:09:56;;;;;;;7.68;1.75;;;10.90;86.00;;;;;;5021875;28;20049;-75
2022/04/07 08:12:25;;;;;;;5.53;1.65;;;10.90;85.90;;;;;;5022269;28;20098;-75
2022/04/07 08:14:51;;;;;;;3.35;1.25;;;10.90;84.60;;;;;;5015651;28;20108;-75
2022/04/07 08:17:18;;;;;;;7.55;1.60;;;10.90;83.60;;;;;;5009342;28;20108;-75
2022/04/07 08:19:44;;;;;;;6.55;1.35;;;10.90;83.20;;;;;;5008446;28;20044;-75
2022/04/07 08:22:09;;;;;;;5.72;1.70;;;10.90;83.20;;;;;;5002594;28;20042;-74
2022/04/07 08:24:35;;;;;;;4.55;1.30;;;10.90;81.60;;;;;;5008832;28;20125;-74
2022/04/07 08:27:05;;;;;;;5.25;1.33;;;10.80;81.80;;;;;;5002633;28;20053;-75
2022/04/07 08:29:31;;;;;;;4.72;1.35;;;10.90;81.30;;;;;;5007932;28;20142;-75
2022/04/07 08:31:57;;;;;;;4.07;1.02;;;10.90;79.50;;;;;;5002698;28;20050;-75
2022/04/07 08:34:25;;;;;;;8.60;1.90;;;10.90;80.20;;;;;;5008134;28;20691;-74
2022/04/07 08:36:52;;;;;;;4.50;1.25;;;10.80;78.90;;;;;;5008113;28;20049;-75
2022/04/07 08:39:17;;;;;;;8.57;1.80;;;10.90;77.70;;;;;;4987209;28;20068;-75
2022/04/07 08:41:45;;;;;;;6.88;2.03;;;10.90;77.10;;;;;;4999041;28;20041;-76
2022/04/07 08:44:12;;;;;;;8.38;1.90;;;11.00;77.50;;;;;;4991601;28;20045;-75
2022/04/07 08:46:39;;;;;;;7.57;1.65;;;10.90;76.60;;;;;;4985422;28;20042;-74
2022/04/07 08:49:07;;;;;;;9.05;2.58;;;11.00;77.30;;;;;;5001203;28;20034;-74
2022/04/07 08:51:32;;;;;;;9.27;1.80;;;11.10;76.60;;;;;;5002172;28;20041;-74
2022/04/07 08:53:59;;;;;;;9.20;1.95;;;11.10;76.40;;;;;;4997830;28;20069;-75
2022/04/07 08:56:25;;;;;;;8.80;1.92;;;11.20;76.00;;;;;;5007191;28;20040;-73
2022/04/07 08:58:53;;;;;;;7.68;2.00;;;11.30;75.90;;;;;;5014577;28;20397;-75
2022/04/07 09:01:19;;;;;;;9.25;2.00;;;11.40;75.00;;;;;;5016246;28;20048;-74
2022/04/07 09:03:45;;;;;;;10.10;2.38;;;11.50;75.30;;;;;;5017635;28;20029;-74
2022/04/07 09:06:13;;;;;;;8.15;2.17;;;11.40;73.80;;;;;;5011917;28;20042;-75
2022/04/07 09:08:40;;;;;;;8.38;1.83;;;11.60;73.40;;;;;;5016041;28;20052;-75
2022/04/07 09:11:08;;;;;;;12.15;2.40;;;12.00;73.80;;;;;;5019770;28;20132;-75
2022/04/07 09:13:36;;;;;;;8.63;2.30;;;11.80;73.30;;;;;;5016024;28;20029;-76
2022/04/07 09:16:07;;;;;;;8.93;2.17;;;12.10;72.80;;;;;;5015024;28;20037;-76
2022/04/07 09:18:37;;;;;;;11.52;2.90;;;12.10;72.50;;;;;;5017438;28;20044;-77
2022/04/07 09:21:06;;;;;;;14.00;2.72;;;12.10;71.30;;;;;;5015720;28;20041;-75
2022/04/07 09:23:39;;;;;;;10.85;2.13;;;12.10;72.50;;;;;;5017897;28;20499;-75
2022/04/07 09:26:10;;;;;;;7.88;1.83;;;12.10;70.70;;;;;;5013887;28;20037;-79
2022/04/07 09:28:35;;;;;;;10.35;2.45;;;12.30;71.10;;;;;;5014364;28;20175;-75
2022/04/07 09:31:01;;;;;;;10.18;2.25;;;12.50;70.30;;;;;;5014194;28;20049;-77
2022/04/07 09:33:28;;;;;;;10.02;2.13;;;12.60;69.30;;;;;;5016118;28;20029;-75
2022/04/07 09:36:01;;;;;;;9.10;2.08;;;12.60;69.40;;;;;;5011275;28;20037;-75
2022/04/07 09:38:30;;;;;;;9.27;2.17;;;12.60;69.30;;;;;;5014526;28;20920;-77
2022/04/07 09:41:12;;;;;;;9.65;2.10;;;12.40;68.50;;;;;;5002487;28;21664;-77
2022/04/07 09:43:49;;;;;;;9.68;2.33;;;12.70;68.50;;;;;;5012907;28;20045;-76
2022/04/07 09:46:18;;;;;;;9.85;1.92;;;12.60;67.50;;;;;;4998080;28;20128;-75
2022/04/07 09:49:07;;;;;;;8.52;2.40;;;12.60;67.10;;;;;;5017472;28;20044;-75
2022/04/07 09:51:45;;;;;;;10.52;2.47;;;12.70;66.60;;;;;;5018365;28;20094;-76
2022/04/07 09:54:11;;;;;;;11.00;2.55;;;12.80;67.20;;;;;;5013830;28;20049;-76
2022/04/07 09:56:38;;;;;;;10.23;2.22;;;12.90;64.60;;;;;;4998540;28;20049;-77
2022/04/07 09:59:07;;;;;;;11.23;2.38;;;13.10;63.90;;;;;;5014426;28;20126;-77
2022/04/07 10:01:38;;;;;;;13.40;2.40;;;13.00;61.30;;;;;;5018656;28;20059;-75
2022/04/07 10:04:10;;;;;;;10.43;2.30;;;13.10;63.80;;;;;;5011880;28;20087;-75
2022/04/07 10:06:39;;;;;;;11.02;2.22;;;12.90;64.50;;;;;;5008144;28;20038;-75
2022/04/07 10:09:09;;;;;;;11.45;2.67;;;13.30;64.60;;;;;;5016896;28;20038;-77
2022/04/07 10:11:35;;;;;;;11.15;2.22;;;13.30;64.10;;;;;;5017787;28;20128;-76
2022/04/07 10:14:02;;;;;;;8.80;2.38;;;13.40;63.30;;;;;;5014159;28;20068;-77
2022/04/07 10:16:28;;;;;;;8.82;2.20;;;13.60;59.80;;;;;;4996780;28;20033;-75
2022/04/07 10:18:59;;;;;;;12.57;2.78;;;13.40;58.70;;;;;;5011341;28;20034;-77
2022/04/07 10:21:58;;;;;;;13.13;2.72;;;13.20;60.70;;;;;;4999071;28;20049;-77
2022/04/07 10:24:35;;;;;;;8.57;2.33;;;13.60;58.60;;;;;;4959754;28;20041;-77
2022/04/07 10:27:03;;;;;;;11.80;2.47;;;13.30;58.50;;;;;;5013360;28;20030;-75
2022/04/07 10:29:29;;;;;;;13.82;3.00;;;13.30;58.30;;;;;;5014303;28;20136;-77
2022/04/07 10:32:10;;;;;;;12.55;2.85;;;13.20;58.90;;;;;;4999817;28;20088;-76
2022/04/07 10:34:43;;;;;;;13.35;4.00;;;12.80;59.80;;;;;;5015250;28;20045;-76
2022/04/07 10:37:09;;;;;;;15.70;2.90;;;13.00;58.70;;;;;;5014850;28;20044;-76
2022/04/07 10:39:39;;;;;;;10.40;2.63;;;13.50;58.50;;;;;;5015694;28;20544;-77
2022/04/07 10:42:05;;;;;;;15.88;3.45;;;13.80;58.60;;;;;;5015032;28;20136;-76
2022/04/07 10:44:33;;;;;;;11.18;2.33;;;13.60;58.10;;;;;;5011390;28;20039;-77
2022/04/07 10:47:04;;;;;;;16.67;3.03;;;13.90;56.60;;;;;;4999401;28;20040;-76
2022/04/07 10:49:31;;;;;;;13.18;2.67;;;13.90;56.80;;;;;;5012532;28;20046;-76
2022/04/07 10:51:59;;;;;;;10.35;2.67;;;13.90;56.60;;;;;;5000096;28;20161;-76
2022/04/07 10:54:30;;;;;;;14.82;2.70;;;14.00;56.30;;;;;;5009460;28;20034;-76
2022/04/07 10:57:01;;;;;;;16.90;3.30;;;14.10;56.20;;;;;;4998872;28;20573;-76
2022/04/07 10:59:28;;;;;;;14.32;3.38;;;13.80;56.40;;;;;;5012275;28;20041;-76
2022/04/07 11:02:07;;;;;;;14.23;3.10;;;13.70;55.30;;;;;;4998096;28;20273;-76
2022/04/07 11:04:38;;;;;;;15.18;3.15;;;13.80;55.20;;;;;;5008140;28;20033;-76
2022/04/07 11:07:16;;;;;;;13.45;3.55;;;13.50;55.30;;;;;;5017100;28;20026;-76
2022/04/07 11:09:47;;;;;;;10.80;2.58;;;13.60;55.80;;;;;;5015250;28;20061;-76
2022/04/07 11:12:18;;;;;;;15.15;3.10;;;13.20;56.80;;;;;;5017296;28;20045;-76
2022/04/07 11:14:46;;;;;;;13.65;2.67;;;13.70;56.30;;;;;;5012828;28;20053;-76
2022/04/07 11:17:35;;;;;;;16.25;3.47;;;13.80;56.70;;;;;;5015700;28;20044;-75
2022/04/07 11:20:13;;;;;;;12.07;3.00;;;13.60;55.40;;;;;;5011977;28;20045;-75
2022/04/07 11:22:54;;;;;;;15.75;2.92;;;13.80;54.60;;;;;;4998127;28;20663;-75
2022/04/07 11:25:32;;;;;;;13.57;2.85;;;13.60;57.10;;;;;;5011221;28;20053;-78
2022/04/07 11:28:22;;;;;;;13.95;3.35;;;13.60;56.80;;;;;;5012485;28;20041;-77
2022/04/07 11:31:00;;;;;;;12.90;2.97;;;13.20;57.10;;;;;;5014721;28;20085;-74
2022/04/07 11:33:26;;;;;;;12.38;3.30;;;13.50;57.40;;;;;;5014631;28;20037;-75
2022/04/07 11:35:59;;;;;;;16.98;3.28;;;13.20;57.70;;;;;;5014977;28;20050;-75
2022/04/07 11:38:34;;;;;;;14.90;4.45;;;13.30;56.20;;;;;;5015484;28;20041;-75
2022/04/07 11:41:04;;;;;;;13.38;3.33;;;13.10;56.40;;;;;;5012690;28;20045;-75
2022/04/07 11:43:31;;;;;;;12.73;3.53;;;13.10;56.10;;;;;;5015337;28;20556;-74
2022/04/07 11:45:57;;;;;;;14.02;2.92;;;13.10;56.10;;;;;;5017056;28;20057;-76
2022/04/07 11:48:24;;;;;;;17.25;3.75;;;13.00;56.90;;;;;;5017094;28;20037;-76
2022/04/07 11:50:50;;;;;;;14.65;3.28;;;12.70;57.10;;;;;;5014830;28;20038;-76
2022/04/07 11:53:17;;;;;;;17.73;3.15;;;12.90;56.90;;;;;;5015401;28;20045;-75
2022/04/07 11:55:43;;;;;;;12.40;2.67;;;13.00;55.50;;;;;;5018393;28;20091;-74
2022/04/07 11:58:17;;;;;;;19.65;3.75;;;12.90;56.40;;;;;;5017052;28;20152;-73
2022/04/07 12:00:43;;;;;;;13.73;3.20;;;12.80;56.70;;;;;;5015934;28;20171;-76
2022/04/07 12:03:08;;;;;;;17.15;3.65;;;13.10;57.00;;;;;;4998864;28;20043;-76
2022/04/07 12:05:40;;;;;;;12.25;2.80;;;13.00;56.30;;;;;;5017498;28;20040;-75
2022/04/07 12:08:11;;;;;;;12.20;3.83;;;13.30;56.20;;;;;;4997583;28;20476;-75
2022/04/07 12:10:41;;;;;;;13.32;2.80;;;13.50;55.00;;;;;;5022503;28;20050;-75
2022/04/07 12:13:07;;;;;;;15.48;3.42;;;13.30;55.10;;;;;;5013027;28;20049;-75
2022/04/07 12:15:37;;;;;;;15.20;2.88;;;13.20;55.70;;;;;;5014328;28;20033;-75
2022/04/07 12:18:06;;;;;;;11.18;2.58;;;13.60;54.20;;;;;;5014389;28;20060;-74
2022/04/07 12:20:33;;;;;;;14.23;3.65;;;13.60;53.00;;;;;;5016090;28;20634;-74
2022/04/07 12:23:05;;;;;;;12.43;3.55;;;13.50;53.40;;;;;;5000034;28;20053;-75
2022/04/07 12:25:30;;;;;;;16.58;3.72;;;13.70;53.00;;;;;;5019605;28;20033;-75
2022/04/07 12:28:13;;;;;;;12.88;3.53;;;13.60;54.70;;;;;;5004587;28;20709;-76
2022/04/07 12:30:43;;;;;;;15.20;3.67;;;13.60;55.00;;;;;;5018914;28;20050;-76
2022/04/07 12:33:09;;;;;;;14.32;3.25;;;13.70;54.10;;;;;;5018646;28;20448;-75
2022/04/07 12:35:49;;;;;;;13.75;3.13;;;13.70;53.40;;;;;;5017943;28;20108;-75
2022/04/07 12:38:14;;;;;;;15.98;2.90;;;13.70;54.20;;;;;;5000638;28;20047;-75
2022/04/07 12:40:40;;;;;;;15.88;3.55;;;13.80;52.60;;;;;;5001632;28;21012;-75
2022/04/07 12:43:06;;;;;;;15.45;3.22;;;13.80;52.80;;;;;;5018706;28;20095;-75